To NAV CANADA Home Page Login to a new session Search on AWWS site Feedback and Comments Disclaimer Vers la page française équivalente Tips FAQ What's new on the site To the Forecasts and Observations / NOTAM section To "File a Flight Plan" website Publications and other links Update of the User's profile FIC Telephone Numbers My Weather Data Folder Route Weather Data Regional Weather Data Local Weather Data To the Forecasts and Observations / NOTAM section
Request Generated 04/29/2016 at 19:44:40 UTC . Weather information available at that time is displayed.

METAR/TAF

THOMPSON/MB    

METAR CYTH 291900Z 15004KT 100V230 15SM SCT095 BKN110 12/M07 A3030
RMK AC4ACC3 SLP272=
METAR CYTH 291800Z CCA 17005KT 130V230 15SM SCT095 BKN110 10/M07
A3031 RMK ACC3AC4 SLP278=
METAR CYTH 291800Z 17005KT 130V230 15SM SCT095 BKN110 10/M07 A3031
RMK AC3AC4 SLP278=
METAR CYTH 291700Z 18008KT 15SM SCT094 BKN110 09/M08 A3032 RMK
ACC4AC3 SLP280=

TAF CYTH 291838Z 2919/3007 17006KT P6SM BKN110 TEMPO 2919/2924 SCT110
FM300000 22006KT P6SM SCT110 BKN220
BECMG 3001/3003 14008KT
RMK NXT FCST BY 300100Z=
Your time UTC time
Weather data provided by Environment Canada and NAV CANADA